createdAt,value
2023-01-30T00:01:46.624Z,28.95
2023-01-30T00:04:19.182Z,23.40
2023-01-30T00:06:51.686Z,30.30
2023-01-30T00:09:24.204Z,22.42
2023-01-30T00:11:56.788Z,26.52
2023-01-30T00:14:29.330Z,24.02
2023-01-30T00:17:02.009Z,23.55
2023-01-30T00:19:34.612Z,23.15
2023-01-30T00:22:07.091Z,27.65
2023-01-30T00:24:39.813Z,25.27
2023-01-30T00:27:12.394Z,20.45
2023-01-30T00:29:57.550Z,20.73
2023-01-30T00:32:33.955Z,30.02
2023-01-30T00:35:07.212Z,23.20
2023-01-30T00:37:40.481Z,24.50
2023-01-30T00:40:13.122Z,23.02
2023-01-30T00:43:04.503Z,20.00
2023-01-30T00:45:59.724Z,21.92
2023-01-30T00:48:32.708Z,20.05
2023-01-30T00:51:05.460Z,27.00
2023-01-30T00:53:37.954Z,29.70
2023-01-30T00:56:10.552Z,26.80
2023-01-30T00:58:43.142Z,25.45
2023-01-30T01:01:15.802Z,22.48
2023-01-30T01:03:48.366Z,23.45
2023-01-30T01:06:20.891Z,23.63
2023-01-30T01:08:53.426Z,26.05
2023-01-30T01:11:25.927Z,21.67
2023-01-30T01:14:03.999Z,25.17
2023-01-30T01:16:36.892Z,19.08
2023-01-30T01:19:09.543Z,22.90
2023-01-30T01:21:42.275Z,24.48
2023-01-30T01:24:15.948Z,24.77
2023-01-30T01:26:48.551Z,22.73
2023-01-30T01:29:21.312Z,20.83
2023-01-30T01:31:53.909Z,20.25
2023-01-30T01:34:26.520Z,21.48
2023-01-30T01:36:59.100Z,22.30
2023-01-30T01:39:50.271Z,25.60
2023-01-30T01:42:26.657Z,22.65
2023-01-30T01:45:17.987Z,18.83
2023-01-30T01:48:14.606Z,24.77
2023-01-30T01:50:58.944Z,20.98
2023-01-30T01:53:46.748Z,23.75
2023-01-30T01:56:20.847Z,21.25
2023-01-30T01:59:03.589Z,21.33
2023-01-30T02:01:36.223Z,23.55
2023-01-30T02:04:11.547Z,23.92
2023-01-30T02:06:44.119Z,21.15
2023-01-30T02:09:17.058Z,20.30
2023-01-30T02:12:00.784Z,21.25
2023-01-30T02:14:35.010Z,22.20
2023-01-30T02:17:07.617Z,19.20
2023-01-30T02:20:35.062Z,21.13
2023-01-30T02:23:22.824Z,22.05
2023-01-30T02:26:25.293Z,16.95
2023-01-30T02:29:31.143Z,20.50
2023-01-30T02:32:29.934Z,22.60
2023-01-30T02:35:18.241Z,27.75
2023-01-30T02:38:06.641Z,26.05
2023-01-30T02:41:00.301Z,22.00
2023-01-30T02:43:59.703Z,26.08
2023-01-30T02:46:59.064Z,22.42
2023-01-30T02:49:58.695Z,25.65
2023-01-30T02:52:33.231Z,20.90
2023-01-30T02:55:26.324Z,23.15
2023-01-30T02:58:00.070Z,23.13
2023-01-30T03:01:21.253Z,23.92
2023-01-30T03:04:36.391Z,19.98
2023-01-30T03:07:34.983Z,27.42
2023-01-30T03:10:34.252Z,24.83
2023-01-30T03:13:11.530Z,26.00
2023-01-30T03:16:13.520Z,20.85
2023-01-30T03:18:47.685Z,22.88
2023-01-30T03:21:20.258Z,20.23
2023-01-30T03:23:52.914Z,25.13
2023-01-30T03:26:33.220Z,19.10
2023-01-30T03:29:06.184Z,23.02
2023-01-30T03:31:38.834Z,23.17
2023-01-30T03:34:11.500Z,29.15
2023-01-30T03:36:44.475Z,23.27
2023-01-30T03:39:17.406Z,24.08
2023-01-30T03:41:50.749Z,22.83
2023-01-30T03:44:23.286Z,23.08
2023-01-30T03:46:55.874Z,27.92
2023-01-30T03:49:28.482Z,23.05
2023-01-30T03:52:01.180Z,27.15
2023-01-30T03:54:36.575Z,24.42
2023-01-30T03:57:09.179Z,25.40
2023-01-30T03:59:41.732Z,24.10
2023-01-30T04:02:14.916Z,23.40
2023-01-30T04:04:47.537Z,24.92
2023-01-30T04:07:20.424Z,25.58
2023-01-30T04:09:53.032Z,21.58
2023-01-30T04:12:25.572Z,20.17
2023-01-30T04:14:58.190Z,24.20
2023-01-30T04:17:30.758Z,22.92
2023-01-30T04:20:04.021Z,21.83
2023-01-30T04:22:36.559Z,22.17
2023-01-30T04:25:09.672Z,21.73
2023-01-30T04:27:42.407Z,22.50
2023-01-30T04:30:15.679Z,23.45
2023-01-30T04:32:48.183Z,18.73
2023-01-30T04:35:20.687Z,19.23
2023-01-30T04:37:53.276Z,21.75
2023-01-30T04:40:25.934Z,19.58
2023-01-30T04:42:58.508Z,20.30
2023-01-30T04:45:31.054Z,16.58
2023-01-30T04:48:03.907Z,19.30
2023-01-30T04:50:36.651Z,21.98
2023-01-30T04:53:10.629Z,14.48
2023-01-30T04:55:43.636Z,16.15
2023-01-30T04:58:19.224Z,15.40
2023-01-30T05:00:51.920Z,16.85
2023-01-30T05:03:24.578Z,19.10
2023-01-30T05:05:57.248Z,16.10
2023-01-30T05:08:29.848Z,13.50
2023-01-30T05:11:02.439Z,19.40
2023-01-30T05:13:35.110Z,18.73
2023-01-30T05:16:07.739Z,14.18
2023-01-30T05:18:40.598Z,11.35
2023-01-30T05:21:20.800Z,12.95
2023-01-30T05:23:54.333Z,11.30
2023-01-30T05:26:26.917Z,11.98
2023-01-30T05:28:59.691Z,18.88
2023-01-30T05:31:32.313Z,19.58
2023-01-30T05:34:05.024Z,7.50
2023-01-30T05:36:38.081Z,9.85
2023-01-30T05:39:10.648Z,12.98
2023-01-30T05:41:43.246Z,10.10
2023-01-30T05:44:15.926Z,10.65
2023-01-30T05:46:49.871Z,10.65
2023-01-30T05:49:22.487Z,9.73
2023-01-30T05:51:55.012Z,8.82
2023-01-30T05:54:27.512Z,12.48
2023-01-30T05:57:00.090Z,11.95
2023-01-30T05:59:32.667Z,14.45
2023-01-30T06:02:05.244Z,13.23
2023-01-30T06:04:38.059Z,12.60
2023-01-30T06:07:10.561Z,9.05
2023-01-30T06:09:43.117Z,11.35
2023-01-30T06:12:15.635Z,10.10
2023-01-30T06:14:48.138Z,10.85
2023-01-30T06:17:20.622Z,9.35
2023-01-30T06:19:53.182Z,8.80
2023-01-30T06:22:25.738Z,15.23
2023-01-30T06:24:58.282Z,10.75
2023-01-30T06:27:30.852Z,15.15
2023-01-30T06:30:03.954Z,13.43
2023-01-30T06:32:36.608Z,9.80
2023-01-30T06:35:09.735Z,8.13
2023-01-30T06:37:45.770Z,9.20
2023-01-30T06:40:18.691Z,11.63
2023-01-30T06:42:51.567Z,13.60
2023-01-30T06:45:24.152Z,6.45
2023-01-30T06:47:57.027Z,14.45
2023-01-30T06:50:30.303Z,13.30
2023-01-30T06:53:08.639Z,10.10
2023-01-30T06:55:41.259Z,15.25
2023-01-30T06:58:14.945Z,7.35
2023-01-30T07:00:47.554Z,10.35
2023-01-30T07:03:20.254Z,7.75
2023-01-30T07:05:52.939Z,8.95
2023-01-30T07:08:25.495Z,12.02
2023-01-30T07:10:58.043Z,7.95
2023-01-30T07:13:30.557Z,7.93
2023-01-30T07:16:03.508Z,7.22
2023-01-30T07:18:36.427Z,14.52
2023-01-30T07:21:09.010Z,7.95
2023-01-30T07:23:41.690Z,11.07
2023-01-30T07:26:14.295Z,8.30
2023-01-30T07:28:46.900Z,8.30
2023-01-30T07:31:19.460Z,16.20
2023-01-30T07:33:52.145Z,13.70
2023-01-30T07:36:24.722Z,12.60
2023-01-30T07:38:57.260Z,10.85
2023-01-30T07:41:29.842Z,9.60
2023-01-30T07:44:03.385Z,5.75
2023-01-30T07:46:36.236Z,10.27
2023-01-30T07:49:09.777Z,10.68
2023-01-30T07:51:42.374Z,9.68
2023-01-30T07:54:14.890Z,13.55
2023-01-30T07:56:47.361Z,12.32
2023-01-30T07:59:19.926Z,14.18
2023-01-30T08:01:52.697Z,10.57
2023-01-30T08:04:25.384Z,13.43
2023-01-30T08:06:57.928Z,20.15
2023-01-30T08:09:30.395Z,11.02
2023-01-30T08:12:03.054Z,13.00
2023-01-30T08:14:35.602Z,13.90
2023-01-30T08:17:08.139Z,14.65
2023-01-30T08:19:40.665Z,10.10
2023-01-30T08:22:14.613Z,10.75
2023-01-30T08:24:47.187Z,26.17
2023-01-30T08:27:19.725Z,10.35
2023-01-30T08:29:52.704Z,6.25
2023-01-30T08:32:25.272Z,10.48
2023-01-30T08:34:57.855Z,12.32
2023-01-30T08:37:30.558Z,17.35
2023-01-30T08:40:03.127Z,10.75
2023-01-30T08:42:35.651Z,18.80
2023-01-30T08:45:08.779Z,8.73
2023-01-30T08:47:41.428Z,12.43
2023-01-30T08:50:13.886Z,10.85
2023-01-30T08:52:46.460Z,15.65
2023-01-30T08:55:19.516Z,10.40
2023-01-30T08:57:52.039Z,4.97
2023-01-30T09:00:24.687Z,8.77
2023-01-30T09:02:58.445Z,12.05
2023-01-30T09:05:31.024Z,9.45
2023-01-30T09:08:04.076Z,13.45
2023-01-30T09:10:36.795Z,9.25
2023-01-30T09:13:10.193Z,16.42
2023-01-30T09:15:44.192Z,8.95
2023-01-30T09:18:17.022Z,7.68
2023-01-30T09:20:50.459Z,11.80
2023-01-30T09:23:24.196Z,7.53
2023-01-30T09:25:56.925Z,8.15
2023-01-30T09:28:29.857Z,9.25
2023-01-30T09:31:03.370Z,10.88
2023-01-30T09:33:35.987Z,12.70
2023-01-30T09:36:09.257Z,13.60
2023-01-30T09:38:41.831Z,14.55
2023-01-30T09:41:50.548Z,11.13
2023-01-30T09:47:56.402Z,9.30
2023-01-30T09:51:03.600Z,10.35
2023-01-30T09:54:08.970Z,9.70
2023-01-30T09:56:41.842Z,15.13
2023-01-30T09:59:34.591Z,4.55
2023-01-30T10:02:59.847Z,11.18
2023-01-30T10:05:46.732Z,9.60
2023-01-30T10:08:56.667Z,14.07
2023-01-30T10:11:53.645Z,14.70
2023-01-30T10:15:10.058Z,13.13
2023-01-30T10:18:19.461Z,10.55
2023-01-30T10:21:40.869Z,17.13
2023-01-30T10:24:44.438Z,14.57
2023-01-30T10:27:22.228Z,9.82
2023-01-30T10:30:00.680Z,10.65
2023-01-30T10:32:53.285Z,12.60
2023-01-30T10:35:34.719Z,8.93
2023-01-30T10:38:18.890Z,9.23
2023-01-30T10:41:24.185Z,18.45
2023-01-30T10:44:04.207Z,13.10
2023-01-30T10:47:07.159Z,11.98
2023-01-30T10:49:45.447Z,7.95
2023-01-30T10:52:54.003Z,12.45
2023-01-30T10:55:48.593Z,10.38
2023-01-30T10:58:42.381Z,10.13
2023-01-30T11:01:26.323Z,12.57
2023-01-30T11:04:07.547Z,12.35
2023-01-30T11:06:42.317Z,13.93
2023-01-30T11:09:14.919Z,14.00
2023-01-30T11:11:55.832Z,11.35
2023-01-30T11:14:28.477Z,10.40
2023-01-30T11:17:02.537Z,8.23
2023-01-30T11:19:37.453Z,10.00
2023-01-30T11:22:18.379Z,12.80
2023-01-30T11:25:14.663Z,12.15
2023-01-30T11:28:01.152Z,10.43
2023-01-30T11:30:36.731Z,9.93
2023-01-30T11:33:17.973Z,13.50
2023-01-30T11:36:06.919Z,4.78
2023-01-30T11:38:58.493Z,14.23
2023-01-30T11:41:31.503Z,8.93
2023-01-30T11:44:05.501Z,9.93
2023-01-30T11:46:42.821Z,11.63
2023-01-30T11:49:35.876Z,16.77
2023-01-30T11:52:22.577Z,12.55
2023-01-30T11:55:05.440Z,9.02
2023-01-30T11:57:53.908Z,14.90
2023-01-30T12:00:39.812Z,13.88
2023-01-30T12:03:20.298Z,7.97
2023-01-30T12:05:55.479Z,15.50
2023-01-30T12:08:42.398Z,14.38
2023-01-30T12:11:32.746Z,6.50
2023-01-30T12:14:40.091Z,11.32
2023-01-30T12:17:44.313Z,12.65
2023-01-30T12:21:13.381Z,12.48
2023-01-30T12:24:00.931Z,16.35
2023-01-30T12:26:47.141Z,13.23
2023-01-30T12:29:27.454Z,14.35
2023-01-30T12:32:13.849Z,9.82
2023-01-30T12:34:48.333Z,6.63
2023-01-30T12:37:51.355Z,7.65
2023-01-30T12:40:53.480Z,9.68
2023-01-30T12:46:38.622Z,14.07
2023-01-30T12:49:58.433Z,13.68
2023-01-30T12:53:08.535Z,14.65
2023-01-30T12:56:36.858Z,13.45
2023-01-30T12:59:54.902Z,17.95
2023-01-30T13:03:15.034Z,12.48
2023-01-30T13:05:54.604Z,10.48
2023-01-30T13:08:58.610Z,10.63
2023-01-30T13:12:01.766Z,14.55
2023-01-30T13:15:16.060Z,12.43
2023-01-30T13:17:48.536Z,13.90
2023-01-30T13:21:05.358Z,12.80
2023-01-30T13:24:05.735Z,18.75
2023-01-30T13:26:42.550Z,16.23
2023-01-30T13:29:33.057Z,13.68
2023-01-30T13:32:43.312Z,7.00
2023-01-30T13:35:35.121Z,14.43
2023-01-30T13:38:11.366Z,10.20
2023-01-30T13:40:45.842Z,11.38
2023-01-30T13:43:35.433Z,17.48
2023-01-30T13:46:14.548Z,9.30
2023-01-30T13:49:14.290Z,11.35
2023-01-30T13:52:02.845Z,8.52
2023-01-30T13:54:59.539Z,10.98
2023-01-30T13:57:44.568Z,9.88
2023-01-30T14:00:25.759Z,10.70
2023-01-30T14:03:07.531Z,21.77
2023-01-30T14:05:53.035Z,13.57
2023-01-30T14:08:29.779Z,8.52
2023-01-30T14:11:02.679Z,21.25
2023-01-30T14:13:35.256Z,13.25
2023-01-30T14:16:08.872Z,9.90
2023-01-30T14:18:45.719Z,10.43
2023-01-30T14:21:25.024Z,14.02
2023-01-30T14:24:01.984Z,19.73
2023-01-30T14:26:52.396Z,8.18
2023-01-30T14:29:43.104Z,12.68
2023-01-30T14:32:15.813Z,11.18
2023-01-30T14:34:50.246Z,17.20
2023-01-30T14:37:49.831Z,15.35
2023-01-30T14:40:22.330Z,9.07
2023-01-30T14:43:37.272Z,13.32
2023-01-30T14:46:18.949Z,15.10
2023-01-30T14:49:05.253Z,9.70
2023-01-30T14:51:40.653Z,15.05
2023-01-30T14:54:13.704Z,12.45
2023-01-30T14:57:05.545Z,11.68
2023-01-30T15:00:14.207Z,9.43
2023-01-30T15:02:59.740Z,13.18
2023-01-30T15:05:45.570Z,8.68
2023-01-30T15:08:26.207Z,4.88
2023-01-30T15:11:23.233Z,13.40
2023-01-30T15:14:11.881Z,11.32
2023-01-30T15:17:19.441Z,11.65
2023-01-30T15:20:04.442Z,9.43
2023-01-30T15:22:54.524Z,10.18
2023-01-30T15:25:44.679Z,14.48
2023-01-30T15:28:48.528Z,10.73
2023-01-30T15:31:23.709Z,12.18
2023-01-30T15:33:57.342Z,10.50
2023-01-30T15:36:36.306Z,9.77
2023-01-30T15:39:25.202Z,10.50
2023-01-30T15:42:08.104Z,10.43
2023-01-30T15:45:05.813Z,9.43
2023-01-30T15:47:44.294Z,14.07
2023-01-30T15:50:17.450Z,13.25
2023-01-30T15:52:53.958Z,8.93
2023-01-30T15:55:31.141Z,15.73
2023-01-30T15:58:14.486Z,8.88
2023-01-30T16:00:51.868Z,6.75
2023-01-30T16:03:30.947Z,5.78
2023-01-30T16:06:03.873Z,9.98
2023-01-30T16:08:37.007Z,16.15
2023-01-30T16:11:10.373Z,15.18
2023-01-30T16:13:42.996Z,14.55
2023-01-30T16:16:19.952Z,11.55
2023-01-30T16:19:00.260Z,13.05
2023-01-30T16:21:37.794Z,10.27
2023-01-30T16:24:35.955Z,12.20
2023-01-30T16:27:23.991Z,8.48
2023-01-30T16:30:06.175Z,12.50
2023-01-30T16:32:40.786Z,9.05
2023-01-30T16:35:27.484Z,16.38
2023-01-30T16:38:03.179Z,12.15
2023-01-30T16:40:46.362Z,14.05
2023-01-30T16:43:24.537Z,12.25
2023-01-30T16:46:41.151Z,9.63
2023-01-30T16:49:30.473Z,12.32
2023-01-30T16:52:26.005Z,18.13
2023-01-30T16:55:05.088Z,10.48
2023-01-30T16:57:53.006Z,14.18
2023-01-30T17:00:35.688Z,19.63
2023-01-30T17:06:15.976Z,16.45
2023-01-30T17:08:58.704Z,10.63
2023-01-30T17:14:32.979Z,12.32
2023-01-30T17:17:08.157Z,12.85
2023-01-30T17:19:40.722Z,15.48
2023-01-30T17:22:20.714Z,12.13
2023-01-30T17:25:03.117Z,16.85
2023-01-30T17:27:35.721Z,16.27
2023-01-30T17:30:17.757Z,12.27
2023-01-30T17:32:50.672Z,14.65
2023-01-30T17:35:23.233Z,14.57
2023-01-30T17:38:04.856Z,17.70
2023-01-30T17:40:39.041Z,12.05
2023-01-30T17:43:13.104Z,12.45
2023-01-30T17:45:45.768Z,13.40
2023-01-30T17:48:18.322Z,26.42
2023-01-30T17:50:50.932Z,17.98
2023-01-30T17:53:23.491Z,18.73
2023-01-30T17:55:56.059Z,19.77
2023-01-30T17:58:28.692Z,19.92
2023-01-30T18:01:01.438Z,9.02
2023-01-30T18:03:33.971Z,12.27
2023-01-30T18:06:07.075Z,9.68
2023-01-30T18:08:40.348Z,16.60
2023-01-30T18:11:14.830Z,13.77
2023-01-30T18:13:47.793Z,27.30
2023-01-30T18:16:31.084Z,21.95
2023-01-30T18:19:08.587Z,11.80
2023-01-30T18:21:45.109Z,23.35
2023-01-30T18:24:18.474Z,15.55
2023-01-30T18:26:51.082Z,21.83
2023-01-30T18:29:23.697Z,11.65
2023-01-30T18:32:03.520Z,16.38
2023-01-30T18:34:39.083Z,14.70
2023-01-30T18:37:11.606Z,18.45
2023-01-30T18:39:44.237Z,18.88
2023-01-30T18:42:16.744Z,15.57
2023-01-30T18:44:49.354Z,15.82
2023-01-30T18:47:21.939Z,21.75
2023-01-30T18:49:55.612Z,12.15
2023-01-30T18:52:28.220Z,25.02
2023-01-30T18:55:00.828Z,15.45
2023-01-30T18:57:33.497Z,17.88
2023-01-30T19:00:07.111Z,13.70
2023-01-30T19:02:39.758Z,20.52
2023-01-30T19:05:12.362Z,12.85
2023-01-30T19:07:45.227Z,17.50
2023-01-30T19:10:18.408Z,25.48
2023-01-30T19:13:10.016Z,20.55
2023-01-30T19:15:42.544Z,14.75
2023-01-30T19:18:15.106Z,18.85
2023-01-30T19:20:47.607Z,37.25
2023-01-30T19:23:21.186Z,38.83
2023-01-30T19:25:56.811Z,22.15
2023-01-30T19:28:31.451Z,23.10
2023-01-30T19:31:09.576Z,16.80
2023-01-30T19:33:45.072Z,13.40
2023-01-30T19:36:22.616Z,15.98
2023-01-30T19:38:58.186Z,13.70
2023-01-30T19:41:36.150Z,21.38
2023-01-30T19:44:08.977Z,19.13
2023-01-30T19:46:41.676Z,21.85
2023-01-30T19:49:14.350Z,18.70
2023-01-30T19:51:47.006Z,11.80
2023-01-30T19:54:19.987Z,16.30
2023-01-30T19:56:52.623Z,16.25
2023-01-30T19:59:25.322Z,14.82
2023-01-30T20:01:58.170Z,18.95
2023-01-30T20:04:30.935Z,12.80
2023-01-30T20:07:03.531Z,16.77
2023-01-30T20:09:36.289Z,27.73
2023-01-30T20:12:09.181Z,21.30
2023-01-30T20:14:41.974Z,14.32
2023-01-30T20:17:14.558Z,18.08
2023-01-30T20:19:47.080Z,18.33
2023-01-30T20:22:19.668Z,11.88
2023-01-30T20:24:52.186Z,13.45
2023-01-30T20:27:27.637Z,11.15
2023-01-30T20:30:00.296Z,7.65
2023-01-30T20:32:35.678Z,9.80
2023-01-30T20:35:08.597Z,15.57
2023-01-30T20:37:41.179Z,12.18
2023-01-30T20:40:14.911Z,12.30
2023-01-30T20:42:48.697Z,14.98
2023-01-30T20:45:21.302Z,20.67
2023-01-30T20:47:54.348Z,9.95
2023-01-30T20:50:27.554Z,18.15
2023-01-30T20:53:00.189Z,7.03
2023-01-30T20:55:33.830Z,14.55
2023-01-30T20:58:06.479Z,11.30
2023-01-30T21:00:39.567Z,7.30
2023-01-30T21:03:12.111Z,11.27
2023-01-30T21:05:44.702Z,7.93
2023-01-30T21:08:17.665Z,13.13
2023-01-30T21:10:50.310Z,16.88
2023-01-30T21:13:24.497Z,10.38
2023-01-30T21:16:24.026Z,11.68
2023-01-30T21:19:02.889Z,14.77
2023-01-30T21:21:40.892Z,8.82
2023-01-30T21:24:15.080Z,11.10
2023-01-30T21:26:48.818Z,4.88
2023-01-30T21:29:25.097Z,10.27
2023-01-30T21:31:58.765Z,10.00
2023-01-30T21:34:33.171Z,14.65
2023-01-30T21:37:24.310Z,13.85
2023-01-30T21:40:15.792Z,12.20
2023-01-30T21:43:07.283Z,14.98
2023-01-30T21:45:41.285Z,17.67
2023-01-30T21:48:13.990Z,13.27
2023-01-30T21:50:48.476Z,14.38
2023-01-30T21:53:21.671Z,18.15
2023-01-30T21:55:54.320Z,15.90
2023-01-30T21:58:31.439Z,12.30
2023-01-30T22:01:07.301Z,14.95
2023-01-30T22:03:40.093Z,15.15
2023-01-30T22:06:12.894Z,15.52
2023-01-30T22:08:46.248Z,10.07
2023-01-30T22:11:21.682Z,17.67
2023-01-30T22:13:54.947Z,18.83
2023-01-30T22:16:30.153Z,11.40
2023-01-30T22:19:04.722Z,12.43
2023-01-30T22:21:40.462Z,12.32
2023-01-30T22:24:13.077Z,6.63
2023-01-30T22:26:45.702Z,11.85
2023-01-30T22:29:18.216Z,14.88
2023-01-30T22:31:51.080Z,10.90
2023-01-30T22:34:24.044Z,13.65
2023-01-30T22:36:57.844Z,11.95
2023-01-30T22:39:30.391Z,13.13
2023-01-30T22:42:02.877Z,11.35
2023-01-30T22:44:35.902Z,22.50
2023-01-30T22:47:08.468Z,13.15
2023-01-30T22:49:41.126Z,11.57
2023-01-30T22:52:13.642Z,16.10
2023-01-30T22:54:46.184Z,9.82
2023-01-30T22:57:18.702Z,8.70
2023-01-30T22:59:52.031Z,10.25
2023-01-30T23:02:24.681Z,15.63
2023-01-30T23:04:57.284Z,17.10
2023-01-30T23:07:30.105Z,14.38
2023-01-30T23:10:02.878Z,12.93
2023-01-30T23:12:53.970Z,9.25
2023-01-30T23:15:26.502Z,10.90
2023-01-30T23:18:17.534Z,16.08
2023-01-30T23:20:50.191Z,11.23
2023-01-30T23:23:22.779Z,10.48
2023-01-30T23:25:55.489Z,15.45
2023-01-30T23:28:28.037Z,22.83
2023-01-30T23:31:10.558Z,11.93
2023-01-30T23:33:43.132Z,15.10
2023-01-30T23:36:15.779Z,12.57
2023-01-30T23:38:53.504Z,14.40
2023-01-30T23:41:30.778Z,8.80
2023-01-30T23:44:04.418Z,13.07
2023-01-30T23:46:42.112Z,10.32
2023-01-30T23:49:15.671Z,14.13
2023-01-30T23:51:48.220Z,13.65
2023-01-30T23:54:21.296Z,16.95
2023-01-30T23:56:54.635Z,18.15
2023-01-30T23:59:27.258Z,8.00
